sensor_id;sensor_type;location;lat;lon;timestamp;P1;durP1;ratioP1;P2;durP2;ratioP2
22138;SDS011;25815;52.582;13.408;2023-04-23T00:01:33;8.75;;;6.75;;
22138;SDS011;25815;52.582;13.408;2023-04-23T00:06:30;9.75;;;7.00;;
22138;SDS011;25815;52.582;13.408;2023-04-23T00:08:58;10.90;;;7.35;;
22138;SDS011;25815;52.582;13.408;2023-04-23T00:11:24;12.10;;;7.07;;
22138;SDS011;25815;52.582;13.408;2023-04-23T00:13:50;7.88;;;6.30;;
22138;SDS011;25815;52.582;13.408;2023-04-23T00:16:17;10.85;;;7.55;;
22138;SDS011;25815;52.582;13.408;2023-04-23T00:18:43;12.50;;;6.72;;
22138;SDS011;25815;52.582;13.408;2023-04-23T00:21:09;9.27;;;6.90;;
22138;SDS011;25815;52.582;13.408;2023-04-23T00:23:35;9.02;;;6.95;;
22138;SDS011;25815;52.582;13.408;2023-04-23T00:26:01;14.57;;;6.90;;
22138;SDS011;25815;52.582;13.408;2023-04-23T00:28:27;9.85;;;7.13;;
22138;SDS011;25815;52.582;13.408;2023-04-23T00:30:53;10.25;;;6.78;;
22138;SDS011;25815;52.582;13.408;2023-04-23T00:33:19;11.88;;;6.75;;
22138;SDS011;25815;52.582;13.408;2023-04-23T00:35:45;10.18;;;6.63;;
22138;SDS011;25815;52.582;13.408;2023-04-23T00:38:11;13.98;;;7.60;;
22138;SDS011;25815;52.582;13.408;2023-04-23T00:40:37;11.57;;;6.97;;
22138;SDS011;25815;52.582;13.408;2023-04-23T00:43:03;9.77;;;7.07;;
22138;SDS011;25815;52.582;13.408;2023-04-23T00:45:29;8.23;;;6.60;;
22138;SDS011;25815;52.582;13.408;2023-04-23T00:47:55;10.60;;;7.22;;
22138;SDS011;25815;52.582;13.408;2023-04-23T00:50:21;9.90;;;7.00;;
22138;SDS011;25815;52.582;13.408;2023-04-23T00:52:47;10.10;;;7.22;;
22138;SDS011;25815;52.582;13.408;2023-04-23T00:55:13;9.73;;;7.18;;
22138;SDS011;25815;52.582;13.408;2023-04-23T00:57:39;9.82;;;6.85;;
22138;SDS011;25815;52.582;13.408;2023-04-23T01:00:06;11.80;;;7.22;;
22138;SDS011;25815;52.582;13.408;2023-04-23T01:02:33;12.10;;;7.35;;
22138;SDS011;25815;52.582;13.408;2023-04-23T01:05:00;9.48;;;6.78;;
22138;SDS011;25815;52.582;13.408;2023-04-23T01:07:26;9.65;;;7.05;;
22138;SDS011;25815;52.582;13.408;2023-04-23T01:09:52;11.30;;;6.95;;
22138;SDS011;25815;52.582;13.408;2023-04-23T01:12:19;10.45;;;7.20;;
22138;SDS011;25815;52.582;13.408;2023-04-23T01:14:44;9.73;;;6.75;;
22138;SDS011;25815;52.582;13.408;2023-04-23T01:17:10;12.77;;;7.00;;
22138;SDS011;25815;52.582;13.408;2023-04-23T01:19:37;10.00;;;7.40;;
22138;SDS011;25815;52.582;13.408;2023-04-23T01:22:10;14.25;;;8.00;;
22138;SDS011;25815;52.582;13.408;2023-04-23T01:24:36;12.50;;;7.20;;
22138;SDS011;25815;52.582;13.408;2023-04-23T01:27:03;10.23;;;8.00;;
22138;SDS011;25815;52.582;13.408;2023-04-23T01:29:30;13.77;;;8.07;;
22138;SDS011;25815;52.582;13.408;2023-04-23T01:31:56;8.45;;;7.10;;
22138;SDS011;25815;52.582;13.408;2023-04-23T01:34:22;11.15;;;7.85;;
22138;SDS011;25815;52.582;13.408;2023-04-23T01:36:48;12.75;;;7.72;;
22138;SDS011;25815;52.582;13.408;2023-04-23T01:39:15;11.95;;;7.70;;
22138;SDS011;25815;52.582;13.408;2023-04-23T01:41:41;11.23;;;7.20;;
22138;SDS011;25815;52.582;13.408;2023-04-23T01:44:08;11.07;;;7.60;;
22138;SDS011;25815;52.582;13.408;2023-04-23T01:46:34;12.13;;;7.38;;
22138;SDS011;25815;52.582;13.408;2023-04-23T01:49:00;10.63;;;7.68;;
22138;SDS011;25815;52.582;13.408;2023-04-23T01:51:28;10.40;;;7.28;;
22138;SDS011;25815;52.582;13.408;2023-04-23T01:53:55;10.80;;;7.00;;
22138;SDS011;25815;52.582;13.408;2023-04-23T01:56:24;9.68;;;7.13;;
22138;SDS011;25815;52.582;13.408;2023-04-23T01:58:50;11.20;;;6.80;;
22138;SDS011;25815;52.582;13.408;2023-04-23T02:01:16;10.95;;;7.30;;
22138;SDS011;25815;52.582;13.408;2023-04-23T02:03:42;13.23;;;7.47;;
22138;SDS011;25815;52.582;13.408;2023-04-23T02:06:08;11.73;;;7.05;;
22138;SDS011;25815;52.582;13.408;2023-04-23T02:08:34;10.68;;;7.30;;
22138;SDS011;25815;52.582;13.408;2023-04-23T02:11:00;11.02;;;7.47;;
22138;SDS011;25815;52.582;13.408;2023-04-23T02:13:26;10.32;;;7.40;;
22138;SDS011;25815;52.582;13.408;2023-04-23T02:15:52;12.32;;;7.40;;
22138;SDS011;25815;52.582;13.408;2023-04-23T02:18:18;9.73;;;6.90;;
22138;SDS011;25815;52.582;13.408;2023-04-23T02:20:44;11.32;;;8.07;;
22138;SDS011;25815;52.582;13.408;2023-04-23T02:23:10;15.57;;;8.10;;
22138;SDS011;25815;52.582;13.408;2023-04-23T02:25:36;12.50;;;8.18;;
22138;SDS011;25815;52.582;13.408;2023-04-23T02:28:03;12.30;;;8.10;;
22138;SDS011;25815;52.582;13.408;2023-04-23T02:30:31;11.13;;;8.15;;
22138;SDS011;25815;52.582;13.408;2023-04-23T02:32:57;13.32;;;9.23;;
22138;SDS011;25815;52.582;13.408;2023-04-23T02:35:23;11.75;;;8.50;;
22138;SDS011;25815;52.582;13.408;2023-04-23T02:37:49;20.20;;;10.32;;
22138;SDS011;25815;52.582;13.408;2023-04-23T02:40:15;14.65;;;8.88;;
22138;SDS011;25815;52.582;13.408;2023-04-23T02:42:41;11.18;;;8.43;;
22138;SDS011;25815;52.582;13.408;2023-04-23T02:45:07;12.68;;;8.65;;
22138;SDS011;25815;52.582;13.408;2023-04-23T02:47:33;11.65;;;8.18;;
22138;SDS011;25815;52.582;13.408;2023-04-23T02:50:00;12.98;;;8.95;;
22138;SDS011;25815;52.582;13.408;2023-04-23T02:52:27;12.10;;;8.45;;
22138;SDS011;25815;52.582;13.408;2023-04-23T02:54:53;10.65;;;8.60;;
22138;SDS011;25815;52.582;13.408;2023-04-23T02:57:19;12.75;;;9.00;;
22138;SDS011;25815;52.582;13.408;2023-04-23T02:59:45;12.05;;;8.85;;
22138;SDS011;25815;52.582;13.408;2023-04-23T03:02:11;13.23;;;8.90;;
22138;SDS011;25815;52.582;13.408;2023-04-23T03:04:37;9.80;;;8.10;;
22138;SDS011;25815;52.582;13.408;2023-04-23T03:07:03;12.80;;;8.38;;
22138;SDS011;25815;52.582;13.408;2023-04-23T03:09:29;13.90;;;8.90;;
22138;SDS011;25815;52.582;13.408;2023-04-23T03:11:55;11.43;;;8.45;;
22138;SDS011;25815;52.582;13.408;2023-04-23T03:14:21;11.32;;;8.35;;
22138;SDS011;25815;52.582;13.408;2023-04-23T03:16:47;11.35;;;8.25;;
22138;SDS011;25815;52.582;13.408;2023-04-23T03:19:14;12.88;;;8.60;;
22138;SDS011;25815;52.582;13.408;2023-04-23T03:21:40;12.50;;;8.23;;
22138;SDS011;25815;52.582;13.408;2023-04-23T03:24:06;14.23;;;8.70;;
22138;SDS011;25815;52.582;13.408;2023-04-23T03:26:32;13.98;;;8.32;;
22138;SDS011;25815;52.582;13.408;2023-04-23T03:28:58;11.48;;;8.10;;
22138;SDS011;25815;52.582;13.408;2023-04-23T03:31:24;12.77;;;8.52;;
22138;SDS011;25815;52.582;13.408;2023-04-23T03:33:50;13.23;;;8.20;;
22138;SDS011;25815;52.582;13.408;2023-04-23T03:36:16;12.52;;;8.38;;
22138;SDS011;25815;52.582;13.408;2023-04-23T03:38:42;14.40;;;8.80;;
22138;SDS011;25815;52.582;13.408;2023-04-23T03:41:08;10.70;;;8.05;;
22138;SDS011;25815;52.582;13.408;2023-04-23T03:43:34;12.98;;;8.38;;
22138;SDS011;25815;52.582;13.408;2023-04-23T03:46:00;10.82;;;7.90;;
22138;SDS011;25815;52.582;13.408;2023-04-23T03:48:26;12.52;;;8.32;;
22138;SDS011;25815;52.582;13.408;2023-04-23T03:50:52;10.88;;;8.43;;
22138;SDS011;25815;52.582;13.408;2023-04-23T03:53:18;11.63;;;7.70;;
22138;SDS011;25815;52.582;13.408;2023-04-23T03:55:44;13.25;;;7.95;;
22138;SDS011;25815;52.582;13.408;2023-04-23T03:58:10;11.30;;;8.20;;
22138;SDS011;25815;52.582;13.408;2023-04-23T04:00:36;12.25;;;8.07;;
22138;SDS011;25815;52.582;13.408;2023-04-23T04:03:02;11.23;;;7.50;;
22138;SDS011;25815;52.582;13.408;2023-04-23T04:05:28;11.55;;;7.10;;
22138;SDS011;25815;52.582;13.408;2023-04-23T04:07:54;9.07;;;6.75;;
22138;SDS011;25815;52.582;13.408;2023-04-23T04:10:20;8.38;;;6.70;;
22138;SDS011;25815;52.582;13.408;2023-04-23T04:12:45;9.63;;;7.13;;
22138;SDS011;25815;52.582;13.408;2023-04-23T04:15:12;8.05;;;6.80;;
22138;SDS011;25815;52.582;13.408;2023-04-23T04:17:38;9.85;;;6.72;;
22138;SDS011;25815;52.582;13.408;2023-04-23T04:20:05;11.70;;;7.30;;
22138;SDS011;25815;52.582;13.408;2023-04-23T04:22:32;9.75;;;7.60;;
22138;SDS011;25815;52.582;13.408;2023-04-23T04:24:58;8.13;;;7.03;;
22138;SDS011;25815;52.582;13.408;2023-04-23T04:27:24;9.38;;;7.30;;
22138;SDS011;25815;52.582;13.408;2023-04-23T04:29:50;8.90;;;7.07;;
22138;SDS011;25815;52.582;13.408;2023-04-23T04:32:16;11.60;;;7.38;;
22138;SDS011;25815;52.582;13.408;2023-04-23T04:34:42;9.82;;;7.05;;
22138;SDS011;25815;52.582;13.408;2023-04-23T04:37:08;9.98;;;6.50;;
22138;SDS011;25815;52.582;13.408;2023-04-23T04:39:35;9.70;;;7.03;;
22138;SDS011;25815;52.582;13.408;2023-04-23T04:42:01;9.40;;;7.50;;
22138;SDS011;25815;52.582;13.408;2023-04-23T04:44:27;7.97;;;6.43;;
22138;SDS011;25815;52.582;13.408;2023-04-23T04:46:54;8.70;;;6.95;;
22138;SDS011;25815;52.582;13.408;2023-04-23T04:49:20;9.27;;;6.68;;
22138;SDS011;25815;52.582;13.408;2023-04-23T04:51:47;8.07;;;6.93;;
22138;SDS011;25815;52.582;13.408;2023-04-23T04:54:13;11.52;;;7.80;;
22138;SDS011;25815;52.582;13.408;2023-04-23T04:56:38;9.93;;;6.20;;
22138;SDS011;25815;52.582;13.408;2023-04-23T04:59:04;11.93;;;6.80;;
22138;SDS011;25815;52.582;13.408;2023-04-23T05:01:30;7.63;;;6.55;;
22138;SDS011;25815;52.582;13.408;2023-04-23T05:03:57;10.98;;;6.35;;
22138;SDS011;25815;52.582;13.408;2023-04-23T05:06:24;8.10;;;6.07;;
22138;SDS011;25815;52.582;13.408;2023-04-23T05:08:49;8.20;;;6.60;;
22138;SDS011;25815;52.582;13.408;2023-04-23T05:11:16;8.88;;;6.55;;
22138;SDS011;25815;52.582;13.408;2023-04-23T05:13:43;11.00;;;6.45;;
22138;SDS011;25815;52.582;13.408;2023-04-23T05:16:09;11.27;;;6.50;;
22138;SDS011;25815;52.582;13.408;2023-04-23T05:18:36;7.50;;;6.35;;
22138;SDS011;25815;52.582;13.408;2023-04-23T05:21:02;9.75;;;6.25;;
22138;SDS011;25815;52.582;13.408;2023-04-23T05:23:28;9.85;;;5.82;;
22138;SDS011;25815;52.582;13.408;2023-04-23T05:25:54;12.50;;;6.10;;
22138;SDS011;25815;52.582;13.408;2023-04-23T05:28:21;7.55;;;5.75;;
22138;SDS011;25815;52.582;13.408;2023-04-23T05:30:47;9.70;;;5.70;;
22138;SDS011;25815;52.582;13.408;2023-04-23T05:33:13;8.65;;;6.13;;
22138;SDS011;25815;52.582;13.408;2023-04-23T05:35:40;7.93;;;6.03;;
22138;SDS011;25815;52.582;13.408;2023-04-23T05:38:06;8.68;;;5.72;;
22138;SDS011;25815;52.582;13.408;2023-04-23T05:40:32;8.43;;;5.93;;
22138;SDS011;25815;52.582;13.408;2023-04-23T05:42:58;7.43;;;5.80;;
22138;SDS011;25815;52.582;13.408;2023-04-23T05:45:24;8.15;;;5.15;;
22138;SDS011;25815;52.582;13.408;2023-04-23T05:47:50;7.20;;;5.30;;
22138;SDS011;25815;52.582;13.408;2023-04-23T05:50:16;7.10;;;5.40;;
22138;SDS011;25815;52.582;13.408;2023-04-23T05:52:42;8.05;;;5.60;;
22138;SDS011;25815;52.582;13.408;2023-04-23T05:55:08;8.98;;;5.65;;
22138;SDS011;25815;52.582;13.408;2023-04-23T05:57:35;7.72;;;5.07;;
22138;SDS011;25815;52.582;13.408;2023-04-23T06:00:01;6.78;;;5.32;;
22138;SDS011;25815;52.582;13.408;2023-04-23T06:02:27;6.78;;;5.07;;
22138;SDS011;25815;52.582;13.408;2023-04-23T06:04:53;8.38;;;5.53;;
22138;SDS011;25815;52.582;13.408;2023-04-23T06:07:19;8.00;;;5.28;;
22138;SDS011;25815;52.582;13.408;2023-04-23T06:09:45;7.05;;;5.55;;
22138;SDS011;25815;52.582;13.408;2023-04-23T06:12:11;7.22;;;5.55;;
22138;SDS011;25815;52.582;13.408;2023-04-23T06:14:37;6.95;;;5.50;;
22138;SDS011;25815;52.582;13.408;2023-04-23T06:17:03;9.45;;;5.85;;
22138;SDS011;25815;52.582;13.408;2023-04-23T06:19:30;7.82;;;5.07;;
22138;SDS011;25815;52.582;13.408;2023-04-23T06:21:56;8.48;;;5.90;;
22138;SDS011;25815;52.582;13.408;2023-04-23T06:24:22;8.82;;;5.43;;
22138;SDS011;25815;52.582;13.408;2023-04-23T06:26:48;6.68;;;5.07;;
22138;SDS011;25815;52.582;13.408;2023-04-23T06:29:14;7.53;;;5.80;;
22138;SDS011;25815;52.582;13.408;2023-04-23T06:31:40;10.15;;;5.70;;
22138;SDS011;25815;52.582;13.408;2023-04-23T06:34:06;6.70;;;5.53;;
22138;SDS011;25815;52.582;13.408;2023-04-23T06:36:32;9.65;;;5.80;;
22138;SDS011;25815;52.582;13.408;2023-04-23T06:38:58;11.68;;;6.22;;
22138;SDS011;25815;52.582;13.408;2023-04-23T06:41:24;7.97;;;5.72;;
22138;SDS011;25815;52.582;13.408;2023-04-23T06:43:50;8.27;;;6.15;;
22138;SDS011;25815;52.582;13.408;2023-04-23T06:46:16;8.75;;;5.80;;
22138;SDS011;25815;52.582;13.408;2023-04-23T06:48:42;10.50;;;6.07;;
22138;SDS011;25815;52.582;13.408;2023-04-23T06:51:08;8.10;;;5.70;;
22138;SDS011;25815;52.582;13.408;2023-04-23T06:53:34;8.52;;;5.63;;
22138;SDS011;25815;52.582;13.408;2023-04-23T06:56:00;6.35;;;5.50;;
22138;SDS011;25815;52.582;13.408;2023-04-23T06:58:26;8.88;;;5.85;;
22138;SDS011;25815;52.582;13.408;2023-04-23T07:00:56;9.73;;;6.03;;
22138;SDS011;25815;52.582;13.408;2023-04-23T07:03:28;10.13;;;6.03;;
22138;SDS011;25815;52.582;13.408;2023-04-23T07:05:55;8.45;;;5.65;;
22138;SDS011;25815;52.582;13.408;2023-04-23T07:08:21;8.70;;;6.20;;
22138;SDS011;25815;52.582;13.408;2023-04-23T07:10:47;8.93;;;5.63;;
22138;SDS011;25815;52.582;13.408;2023-04-23T07:13:14;9.18;;;6.07;;
22138;SDS011;25815;52.582;13.408;2023-04-23T07:15:40;8.75;;;5.68;;
22138;SDS011;25815;52.582;13.408;2023-04-23T07:18:07;13.00;;;6.40;;
22138;SDS011;25815;52.582;13.408;2023-04-23T07:20:33;10.18;;;6.78;;
22138;SDS011;25815;52.582;13.408;2023-04-23T07:22:59;9.88;;;5.90;;
22138;SDS011;25815;52.582;13.408;2023-04-23T07:25:25;7.70;;;6.03;;
22138;SDS011;25815;52.582;13.408;2023-04-23T07:27:51;7.88;;;7.00;;
22138;SDS011;25815;52.582;13.408;2023-04-23T07:30:18;10.10;;;6.47;;
22138;SDS011;25815;52.582;13.408;2023-04-23T07:32:44;9.65;;;6.40;;
22138;SDS011;25815;52.582;13.408;2023-04-23T07:35:10;9.68;;;5.90;;
22138;SDS011;25815;52.582;13.408;2023-04-23T07:37:36;9.05;;;6.30;;
22138;SDS011;25815;52.582;13.408;2023-04-23T07:40:03;6.72;;;6.00;;
22138;SDS011;25815;52.582;13.408;2023-04-23T07:42:29;8.35;;;6.35;;
22138;SDS011;25815;52.582;13.408;2023-04-23T07:44:55;7.78;;;6.05;;
22138;SDS011;25815;52.582;13.408;2023-04-23T07:47:21;7.97;;;5.90;;
22138;SDS011;25815;52.582;13.408;2023-04-23T07:49:47;8.20;;;5.88;;
22138;SDS011;25815;52.582;13.408;2023-04-23T07:52:14;10.55;;;5.90;;
22138;SDS011;25815;52.582;13.408;2023-04-23T07:54:40;7.63;;;6.10;;
22138;SDS011;25815;52.582;13.408;2023-04-23T07:57:06;8.80;;;6.25;;
22138;SDS011;25815;52.582;13.408;2023-04-23T07:59:32;10.93;;;6.65;;
22138;SDS011;25815;52.582;13.408;2023-04-23T08:01:58;9.93;;;6.57;;
22138;SDS011;25815;52.582;13.408;2023-04-23T08:04:24;8.05;;;6.45;;
22138;SDS011;25815;52.582;13.408;2023-04-23T08:06:50;10.15;;;6.95;;
22138;SDS011;25815;52.582;13.408;2023-04-23T08:09:16;10.57;;;7.07;;
22138;SDS011;25815;52.582;13.408;2023-04-23T08:11:42;11.68;;;7.53;;
22138;SDS011;25815;52.582;13.408;2023-04-23T08:14:08;9.68;;;7.05;;
22138;SDS011;25815;52.582;13.408;2023-04-23T08:16:35;9.88;;;7.22;;
22138;SDS011;25815;52.582;13.408;2023-04-23T08:19:01;14.77;;;8.02;;
22138;SDS011;25815;52.582;13.408;2023-04-23T08:21:29;10.48;;;7.20;;
22138;SDS011;25815;52.582;13.408;2023-04-23T08:23:55;10.93;;;7.55;;
22138;SDS011;25815;52.582;13.408;2023-04-23T08:26:21;10.65;;;7.85;;
22138;SDS011;25815;52.582;13.408;2023-04-23T08:28:47;14.52;;;7.65;;
22138;SDS011;25815;52.582;13.408;2023-04-23T08:31:13;9.15;;;7.78;;
22138;SDS011;25815;52.582;13.408;2023-04-23T08:33:40;10.30;;;7.43;;
22138;SDS011;25815;52.582;13.408;2023-04-23T08:36:06;15.88;;;8.68;;
22138;SDS011;25815;52.582;13.408;2023-04-23T08:38:32;11.75;;;8.32;;
22138;SDS011;25815;52.582;13.408;2023-04-23T08:40:58;13.35;;;8.73;;
22138;SDS011;25815;52.582;13.408;2023-04-23T08:43:27;10.98;;;8.32;;
22138;SDS011;25815;52.582;13.408;2023-04-23T08:45:56;12.45;;;8.25;;
22138;SDS011;25815;52.582;13.408;2023-04-23T08:48:24;14.10;;;8.77;;
22138;SDS011;25815;52.582;13.408;2023-04-23T08:50:50;13.40;;;9.13;;
22138;SDS011;25815;52.582;13.408;2023-04-23T08:53:17;12.38;;;8.60;;
22138;SDS011;25815;52.582;13.408;2023-04-23T08:55:46;12.85;;;8.98;;
22138;SDS011;25815;52.582;13.408;2023-04-23T08:58:14;14.57;;;10.55;;
22138;SDS011;25815;52.582;13.408;2023-04-23T09:00:40;16.27;;;12.07;;
22138;SDS011;25815;52.582;13.408;2023-04-23T09:03:06;17.08;;;12.98;;
22138;SDS011;25815;52.582;13.408;2023-04-23T09:05:33;16.05;;;12.98;;
22138;SDS011;25815;52.582;13.408;2023-04-23T09:07:59;15.77;;;12.85;;
22138;SDS011;25815;52.582;13.408;2023-04-23T09:10:25;17.83;;;12.65;;
22138;SDS011;25815;52.582;13.408;2023-04-23T09:12:51;15.40;;;12.63;;
22138;SDS011;25815;52.582;13.408;2023-04-23T09:15:17;17.60;;;12.93;;
22138;SDS011;25815;52.582;13.408;2023-04-23T09:17:45;14.00;;;12.57;;
22138;SDS011;25815;52.582;13.408;2023-04-23T09:20:12;16.17;;;12.75;;
22138;SDS011;25815;52.582;13.408;2023-04-23T09:22:39;16.45;;;13.25;;
22138;SDS011;25815;52.582;13.408;2023-04-23T09:25:08;15.45;;;12.73;;
22138;SDS011;25815;52.582;13.408;2023-04-23T09:27:35;12.75;;;10.82;;
22138;SDS011;25815;52.582;13.408;2023-04-23T09:30:01;12.88;;;9.43;;
22138;SDS011;25815;52.582;13.408;2023-04-23T09:32:35;9.60;;;8.60;;
22138;SDS011;25815;52.582;13.408;2023-04-23T09:35:05;12.15;;;8.40;;
22138;SDS011;25815;52.582;13.408;2023-04-23T09:37:32;11.90;;;7.90;;
22138;SDS011;25815;52.582;13.408;2023-04-23T09:39:59;10.40;;;7.95;;
22138;SDS011;25815;52.582;13.408;2023-04-23T09:42:28;6.63;;;5.85;;
22138;SDS011;25815;52.582;13.408;2023-04-23T09:45:04;6.25;;;5.13;;
22138;SDS011;25815;52.582;13.408;2023-04-23T09:47:31;4.60;;;4.03;;
22138;SDS011;25815;52.582;13.408;2023-04-23T09:49:57;4.70;;;4.18;;
22138;SDS011;25815;52.582;13.408;2023-04-23T09:52:23;4.97;;;3.83;;
22138;SDS011;25815;52.582;13.408;2023-04-23T09:54:50;4.43;;;3.58;;
22138;SDS011;25815;52.582;13.408;2023-04-23T09:57:16;4.63;;;3.75;;
22138;SDS011;25815;52.582;13.408;2023-04-23T09:59:42;3.95;;;3.40;;
22138;SDS011;25815;52.582;13.408;2023-04-23T10:02:08;3.67;;;3.20;;
22138;SDS011;25815;52.582;13.408;2023-04-23T10:04:35;5.32;;;3.63;;
22138;SDS011;25815;52.582;13.408;2023-04-23T10:07:02;4.32;;;3.58;;
22138;SDS011;25815;52.582;13.408;2023-04-23T10:09:28;5.32;;;3.78;;
22138;SDS011;25815;52.582;13.408;2023-04-23T10:11:56;4.20;;;3.28;;
22138;SDS011;25815;52.582;13.408;2023-04-23T10:14:23;3.80;;;3.40;;
22138;SDS011;25815;52.582;13.408;2023-04-23T10:16:52;3.65;;;3.10;;
22138;SDS011;25815;52.582;13.408;2023-04-23T10:19:22;5.20;;;4.25;;
22138;SDS011;25815;52.582;13.408;2023-04-23T10:21:49;4.72;;;4.25;;
22138;SDS011;25815;52.582;13.408;2023-04-23T10:24:19;5.00;;;3.88;;
22138;SDS011;25815;52.582;13.408;2023-04-23T10:26:46;5.20;;;4.00;;
22138;SDS011;25815;52.582;13.408;2023-04-23T10:29:12;5.68;;;3.97;;
22138;SDS011;25815;52.582;13.408;2023-04-23T10:31:40;4.00;;;3.60;;
22138;SDS011;25815;52.582;13.408;2023-04-23T10:34:08;3.50;;;2.97;;
22138;SDS011;25815;52.582;13.408;2023-04-23T10:36:35;3.50;;;2.92;;
22138;SDS011;25815;52.582;13.408;2023-04-23T10:39:01;3.75;;;2.72;;
22138;SDS011;25815;52.582;13.408;2023-04-23T10:41:34;3.38;;;2.47;;
22138;SDS011;25815;52.582;13.408;2023-04-23T10:46:27;4.65;;;3.75;;
22138;SDS011;25815;52.582;13.408;2023-04-23T10:51:35;4.95;;;4.03;;
22138;SDS011;25815;52.582;13.408;2023-04-23T10:54:02;6.72;;;4.70;;
22138;SDS011;25815;52.582;13.408;2023-04-23T10:56:28;5.43;;;4.55;;
22138;SDS011;25815;52.582;13.408;2023-04-23T10:58:54;6.35;;;5.22;;
22138;SDS011;25815;52.582;13.408;2023-04-23T11:01:23;7.40;;;5.60;;
22138;SDS011;25815;52.582;13.408;2023-04-23T11:03:50;6.65;;;5.40;;
22138;SDS011;25815;52.582;13.408;2023-04-23T11:11:52;9.00;;;5.38;;
22138;SDS011;25815;52.582;13.408;2023-04-23T11:14:19;7.70;;;5.28;;
22138;SDS011;25815;52.582;13.408;2023-04-23T11:16:47;8.55;;;5.65;;
22138;SDS011;25815;52.582;13.408;2023-04-23T11:19:13;8.20;;;6.10;;
22138;SDS011;25815;52.582;13.408;2023-04-23T11:21:58;8.30;;;6.68;;
22138;SDS011;25815;52.582;13.408;2023-04-23T11:26:54;9.25;;;6.82;;
22138;SDS011;25815;52.582;13.408;2023-04-23T11:29:21;8.88;;;7.05;;
22138;SDS011;25815;52.582;13.408;2023-04-23T11:31:50;8.57;;;7.43;;
22138;SDS011;25815;52.582;13.408;2023-04-23T11:34:16;10.50;;;7.93;;
22138;SDS011;25815;52.582;13.408;2023-04-23T11:36:42;9.13;;;7.15;;
22138;SDS011;25815;52.582;13.408;2023-04-23T11:39:08;9.68;;;8.00;;
22138;SDS011;25815;52.582;13.408;2023-04-23T11:41:36;10.63;;;8.10;;
22138;SDS011;25815;52.582;13.408;2023-04-23T11:44:02;10.45;;;8.40;;
22138;SDS011;25815;52.582;13.408;2023-04-23T11:46:28;9.95;;;8.02;;
22138;SDS011;25815;52.582;13.408;2023-04-23T11:48:54;12.02;;;8.57;;
22138;SDS011;25815;52.582;13.408;2023-04-23T11:51:26;13.00;;;8.15;;
22138;SDS011;25815;52.582;13.408;2023-04-23T11:53:52;11.50;;;7.30;;
22138;SDS011;25815;52.582;13.408;2023-04-23T11:56:18;10.82;;;7.97;;
22138;SDS011;25815;52.582;13.408;2023-04-23T11:58:44;10.73;;;8.82;;
22138;SDS011;25815;52.582;13.408;2023-04-23T12:01:11;11.32;;;8.55;;
22138;SDS011;25815;52.582;13.408;2023-04-23T12:03:37;10.15;;;7.60;;
22138;SDS011;25815;52.582;13.408;2023-04-23T12:06:04;9.45;;;7.53;;
22138;SDS011;25815;52.582;13.408;2023-04-23T12:08:33;9.75;;;7.90;;
22138;SDS011;25815;52.582;13.408;2023-04-23T12:11:00;9.20;;;7.00;;
22138;SDS011;25815;52.582;13.408;2023-04-23T12:13:28;9.85;;;7.15;;
22138;SDS011;25815;52.582;13.408;2023-04-23T12:15:56;9.68;;;7.20;;
22138;SDS011;25815;52.582;13.408;2023-04-23T12:18:34;8.93;;;6.97;;
22138;SDS011;25815;52.582;13.408;2023-04-23T12:21:06;7.57;;;6.63;;
22138;SDS011;25815;52.582;13.408;2023-04-23T12:23:32;7.50;;;6.10;;
22138;SDS011;25815;52.582;13.408;2023-04-23T12:26:00;7.80;;;6.30;;
22138;SDS011;25815;52.582;13.408;2023-04-23T12:28:27;6.40;;;5.32;;
22138;SDS011;25815;52.582;13.408;2023-04-23T12:30:57;7.28;;;5.03;;
22138;SDS011;25815;52.582;13.408;2023-04-23T12:33:24;6.72;;;4.93;;
22138;SDS011;25815;52.582;13.408;2023-04-23T12:35:53;4.95;;;4.00;;
22138;SDS011;25815;52.582;13.408;2023-04-23T12:38:22;5.60;;;4.40;;
22138;SDS011;25815;52.582;13.408;2023-04-23T12:40:49;5.80;;;4.35;;
22138;SDS011;25815;52.582;13.408;2023-04-23T12:43:15;6.28;;;4.78;;
22138;SDS011;25815;52.582;13.408;2023-04-23T12:45:41;6.40;;;4.60;;
22138;SDS011;25815;52.582;13.408;2023-04-23T12:48:07;6.38;;;4.80;;
22138;SDS011;25815;52.582;13.408;2023-04-23T12:50:33;5.32;;;4.10;;
22138;SDS011;25815;52.582;13.408;2023-04-23T12:52:59;4.85;;;4.00;;
22138;SDS011;25815;52.582;13.408;2023-04-23T12:55:25;6.30;;;5.07;;
22138;SDS011;25815;52.582;13.408;2023-04-23T12:57:51;6.40;;;4.60;;
22138;SDS011;25815;52.582;13.408;2023-04-23T13:00:17;5.22;;;4.30;;
22138;SDS011;25815;52.582;13.408;2023-04-23T13:02:43;4.45;;;3.70;;
22138;SDS011;25815;52.582;13.408;2023-04-23T13:05:09;5.72;;;3.70;;
22138;SDS011;25815;52.582;13.408;2023-04-23T13:07:35;5.18;;;3.65;;
22138;SDS011;25815;52.582;13.408;2023-04-23T13:10:01;5.60;;;4.53;;
22138;SDS011;25815;52.582;13.408;2023-04-23T13:12:27;4.07;;;3.65;;
22138;SDS011;25815;52.582;13.408;2023-04-23T13:14:53;4.00;;;3.28;;
22138;SDS011;25815;52.582;13.408;2023-04-23T13:17:19;6.47;;;3.60;;
22138;SDS011;25815;52.582;13.408;2023-04-23T13:19:45;4.03;;;3.15;;
22138;SDS011;25815;52.582;13.408;2023-04-23T13:22:11;4.50;;;3.47;;
22138;SDS011;25815;52.582;13.408;2023-04-23T13:24:37;4.95;;;3.53;;
22138;SDS011;25815;52.582;13.408;2023-04-23T13:27:02;5.20;;;3.22;;
22138;SDS011;25815;52.582;13.408;2023-04-23T13:29:28;3.38;;;2.95;;
22138;SDS011;25815;52.582;13.408;2023-04-23T13:31:55;4.38;;;3.13;;
22138;SDS011;25815;52.582;13.408;2023-04-23T13:34:22;4.53;;;3.33;;
22138;SDS011;25815;52.582;13.408;2023-04-23T13:36:48;3.78;;;3.15;;
22138;SDS011;25815;52.582;13.408;2023-04-23T13:39:14;3.47;;;3.03;;
22138;SDS011;25815;52.582;13.408;2023-04-23T13:41:42;3.65;;;2.17;;
22138;SDS011;25815;52.582;13.408;2023-04-23T13:44:08;3.05;;;1.90;;
22138;SDS011;25815;52.582;13.408;2023-04-23T13:46:34;2.55;;;1.80;;
22138;SDS011;25815;52.582;13.408;2023-04-23T13:49:00;4.07;;;1.70;;
22138;SDS011;25815;52.582;13.408;2023-04-23T13:51:26;2.33;;;1.60;;
22138;SDS011;25815;52.582;13.408;2023-04-23T13:53:52;3.47;;;1.73;;
22138;SDS011;25815;52.582;13.408;2023-04-23T13:56:18;2.03;;;1.65;;
22138;SDS011;25815;52.582;13.408;2023-04-23T13:58:44;5.90;;;1.92;;
22138;SDS011;25815;52.582;13.408;2023-04-23T14:01:12;2.85;;;1.50;;
22138;SDS011;25815;52.582;13.408;2023-04-23T14:03:39;1.45;;;1.23;;
22138;SDS011;25815;52.582;13.408;2023-04-23T14:06:05;1.80;;;1.40;;
22138;SDS011;25815;52.582;13.408;2023-04-23T14:08:32;1.55;;;1.30;;
22138;SDS011;25815;52.582;13.408;2023-04-23T14:11:00;1.40;;;1.23;;
22138;SDS011;25815;52.582;13.408;2023-04-23T14:13:26;2.97;;;1.35;;
22138;SDS011;25815;52.582;13.408;2023-04-23T14:15:52;3.38;;;1.30;;
22138;SDS011;25815;52.582;13.408;2023-04-23T14:18:18;1.52;;;1.20;;
22138;SDS011;25815;52.582;13.408;2023-04-23T14:20:45;1.35;;;0.90;;
22138;SDS011;25815;52.582;13.408;2023-04-23T14:25:52;1.55;;;1.30;;
22138;SDS011;25815;52.582;13.408;2023-04-23T14:28:32;1.80;;;1.17;;
22138;SDS011;25815;52.582;13.408;2023-04-23T14:30:58;1.63;;;1.00;;
22138;SDS011;25815;52.582;13.408;2023-04-23T14:33:25;1.92;;;1.08;;
22138;SDS011;25815;52.582;13.408;2023-04-23T14:35:51;3.40;;;1.70;;
22138;SDS011;25815;52.582;13.408;2023-04-23T14:38:17;1.98;;;1.13;;
22138;SDS011;25815;52.582;13.408;2023-04-23T14:40:43;2.25;;;1.23;;
22138;SDS011;25815;52.582;13.408;2023-04-23T14:43:09;2.47;;;1.25;;